createdAt,value
2017-10-14T00:00:26.137Z,0
2017-10-14T00:01:06.593Z,0
2017-10-14T00:01:47.094Z,0
2017-10-14T00:02:27.543Z,0
2017-10-14T00:03:07.949Z,0
2017-10-14T00:03:48.386Z,0
2017-10-14T00:04:28.913Z,0
2017-10-14T00:05:09.357Z,0
2017-10-14T00:05:49.773Z,0
2017-10-14T00:06:30.236Z,0
2017-10-14T00:07:10.658Z,0
2017-10-14T00:07:51.134Z,0
2017-10-14T00:08:31.589Z,0
2017-10-14T00:09:12.160Z,0
2017-10-14T00:09:52.621Z,0
2017-10-14T00:10:33.086Z,0
2017-10-14T00:11:13.666Z,0
2017-10-14T00:11:54.190Z,0
2017-10-14T00:12:34.716Z,0
2017-10-14T00:13:15.131Z,0
2017-10-14T00:13:55.572Z,0
2017-10-14T00:14:36.092Z,0
2017-10-14T00:15:16.570Z,0
2017-10-14T00:15:56.962Z,0
2017-10-14T00:16:37.415Z,0
2017-10-14T00:17:17.948Z,0
2017-10-14T00:17:58.422Z,0
2017-10-14T00:18:39.015Z,0
2017-10-14T00:19:19.416Z,0
2017-10-14T00:19:59.866Z,0
2017-10-14T00:20:40.265Z,0
2017-10-14T00:21:20.732Z,0
2017-10-14T00:22:01.174Z,0
2017-10-14T00:22:41.641Z,0
2017-10-14T00:23:22.076Z,0
2017-10-14T00:24:02.594Z,0
2017-10-14T00:24:43.085Z,0
2017-10-14T00:25:23.599Z,0
2017-10-14T00:26:04.071Z,0
2017-10-14T00:26:44.521Z,0
2017-10-14T00:27:25.008Z,0
2017-10-14T00:28:05.472Z,0
2017-10-14T00:28:45.900Z,0
2017-10-14T00:29:27.328Z,0
2017-10-14T00:30:07.843Z,0
2017-10-14T00:30:48.305Z,0
2017-10-14T00:31:29.026Z,0
2017-10-14T00:32:09.272Z,0
2017-10-14T00:32:49.748Z,0
2017-10-14T00:33:30.190Z,0
2017-10-14T00:34:10.685Z,0
2017-10-14T00:34:51.135Z,0
2017-10-14T00:35:31.677Z,0
2017-10-14T00:36:12.122Z,0
2017-10-14T00:36:52.569Z,0
2017-10-14T00:37:32.980Z,0
2017-10-14T00:38:13.477Z,0
2017-10-14T00:38:53.953Z,0
2017-10-14T00:39:34.380Z,0
2017-10-14T00:40:14.911Z,0
2017-10-14T00:40:55.314Z,0
2017-10-14T00:41:35.734Z,0
2017-10-14T00:42:16.288Z,0
2017-10-14T00:42:56.723Z,0
2017-10-14T00:43:37.146Z,0
2017-10-14T00:44:17.640Z,0
2017-10-14T00:44:58.098Z,0
2017-10-14T00:45:38.613Z,0
2017-10-14T00:46:19.072Z,0
2017-10-14T00:46:59.556Z,0
2017-10-14T00:47:39.997Z,0
2017-10-14T00:48:20.453Z,0
2017-10-14T00:49:00.893Z,0
2017-10-14T00:49:41.347Z,0
2017-10-14T00:50:21.791Z,0
2017-10-14T00:51:02.274Z,0
2017-10-14T00:51:42.660Z,0
2017-10-14T00:52:23.289Z,0
2017-10-14T00:53:03.681Z,0
2017-10-14T00:53:44.139Z,0
2017-10-14T00:54:24.637Z,0
2017-10-14T00:55:05.121Z,0
2017-10-14T00:55:45.530Z,0
2017-10-14T00:56:25.984Z,0
2017-10-14T00:57:06.433Z,0
2017-10-14T00:57:46.938Z,0
2017-10-14T00:58:27.447Z,0
2017-10-14T00:59:07.920Z,0
2017-10-14T00:59:48.380Z,0
2017-10-14T01:00:29.075Z,0
2017-10-14T01:01:09.492Z,0
2017-10-14T01:01:49.997Z,0
2017-10-14T01:04:24.449Z,0
2017-10-14T01:05:04.908Z,0
2017-10-14T01:05:45.363Z,0
2017-10-14T01:06:25.835Z,0
2017-10-14T01:07:06.312Z,0
2017-10-14T01:07:46.764Z,0
2017-10-14T01:08:27.252Z,0
2017-10-14T01:09:07.794Z,0
2017-10-14T01:09:48.331Z,0
2017-10-14T01:10:28.807Z,0
2017-10-14T01:11:09.295Z,0
2017-10-14T01:11:49.820Z,0
2017-10-14T01:12:30.253Z,0
2017-10-14T01:13:11.090Z,0
2017-10-14T01:13:51.533Z,0
2017-10-14T01:14:32.013Z,0
2017-10-14T01:15:12.497Z,0
2017-10-14T01:15:52.996Z,0
2017-10-14T01:16:33.388Z,0
2017-10-14T01:17:13.869Z,0
2017-10-14T01:17:54.292Z,0
2017-10-14T01:20:33.216Z,0
2017-10-14T01:21:13.665Z,0
2017-10-14T01:21:54.106Z,0
2017-10-14T01:22:34.602Z,0
2017-10-14T01:23:15.115Z,0
2017-10-14T01:23:55.569Z,0
2017-10-14T01:24:36.041Z,0
2017-10-14T01:25:16.644Z,0
2017-10-14T01:25:57.031Z,0
2017-10-14T01:26:37.539Z,0
2017-10-14T01:27:17.941Z,0
2017-10-14T01:27:58.528Z,0
2017-10-14T01:28:38.970Z,0
2017-10-14T01:29:19.417Z,0
2017-10-14T01:29:59.877Z,0
2017-10-14T01:30:40.337Z,0
2017-10-14T01:31:20.802Z,0
2017-10-14T01:32:01.428Z,0
2017-10-14T01:32:41.743Z,0
2017-10-14T01:33:22.178Z,0
2017-10-14T01:34:02.619Z,0
2017-10-14T01:34:43.130Z,0
2017-10-14T01:35:23.575Z,0
2017-10-14T01:36:03.997Z,0
2017-10-14T01:36:44.440Z,0
2017-10-14T01:37:24.900Z,0
2017-10-14T01:38:05.372Z,0
2017-10-14T01:38:45.799Z,0
2017-10-14T01:39:26.249Z,0
2017-10-14T01:40:06.746Z,0
2017-10-14T01:40:47.196Z,0
2017-10-14T01:41:27.656Z,0
2017-10-14T01:42:08.127Z,0
2017-10-14T01:42:48.643Z,0
2017-10-14T01:43:29.074Z,0
2017-10-14T01:44:09.526Z,0
2017-10-14T01:44:50.024Z,0
2017-10-14T01:45:30.472Z,0
2017-10-14T01:46:10.932Z,0
2017-10-14T01:46:51.425Z,0
2017-10-14T01:47:31.953Z,0
2017-10-14T01:48:12.381Z,0
2017-10-14T01:48:52.885Z,0
2017-10-14T01:49:33.376Z,0
2017-10-14T01:50:13.828Z,0
2017-10-14T01:50:54.270Z,0
2017-10-14T01:51:34.731Z,0
2017-10-14T01:52:15.184Z,0
2017-10-14T01:52:55.736Z,0
2017-10-14T01:53:36.126Z,0
2017-10-14T01:54:16.663Z,0
2017-10-14T01:54:57.169Z,0
2017-10-14T01:55:37.628Z,0
2017-10-14T01:56:18.111Z,0
2017-10-14T01:56:58.518Z,0
2017-10-14T01:57:38.994Z,0
2017-10-14T01:58:19.517Z,0
2017-10-14T01:59:00.049Z,0
2017-10-14T01:59:40.540Z,0
2017-10-14T02:00:21.070Z,0
2017-10-14T02:01:01.544Z,0
2017-10-14T02:01:42.009Z,0
2017-10-14T02:02:22.515Z,0
2017-10-14T02:03:02.953Z,0
2017-10-14T02:03:43.556Z,0
2017-10-14T02:04:23.912Z,0
2017-10-14T02:05:04.399Z,0
2017-10-14T02:05:44.855Z,0
2017-10-14T02:06:25.308Z,0
2017-10-14T02:07:05.866Z,0
2017-10-14T02:07:46.346Z,0
2017-10-14T02:08:26.806Z,0
2017-10-14T02:09:07.186Z,0
2017-10-14T02:09:47.713Z,0
2017-10-14T02:10:28.092Z,0
2017-10-14T02:11:08.536Z,0
2017-10-14T02:11:49.079Z,0
2017-10-14T02:12:29.532Z,0
2017-10-14T02:13:10.085Z,0
2017-10-14T02:13:50.605Z,0
2017-10-14T02:14:31.046Z,0
2017-10-14T02:15:11.529Z,0
2017-10-14T02:15:51.994Z,0
2017-10-14T02:16:32.447Z,0
2017-10-14T02:17:12.960Z,0
2017-10-14T02:17:53.430Z,0
2017-10-14T02:18:33.901Z,0
2017-10-14T02:21:12.709Z,0
2017-10-14T02:21:53.164Z,0
2017-10-14T02:22:33.663Z,0
2017-10-14T02:23:14.119Z,0
2017-10-14T02:23:54.664Z,0
2017-10-14T02:24:35.047Z,0
2017-10-14T02:25:15.585Z,0
2017-10-14T02:25:56.018Z,0
2017-10-14T02:26:36.452Z,0
2017-10-14T02:27:16.937Z,0
2017-10-14T02:27:57.335Z,0
2017-10-14T02:28:37.830Z,0
2017-10-14T02:29:18.262Z,0
2017-10-14T02:29:58.776Z,0
2017-10-14T02:30:39.229Z,0
2017-10-14T02:31:19.720Z,0
2017-10-14T02:32:00.194Z,0
2017-10-14T02:32:40.653Z,0
2017-10-14T02:33:21.151Z,0
2017-10-14T02:34:01.586Z,0
2017-10-14T02:34:42.043Z,0
2017-10-14T02:35:22.474Z,0
2017-10-14T02:36:03.004Z,0
2017-10-14T02:36:44.180Z,0
2017-10-14T02:37:24.646Z,0
2017-10-14T02:38:05.100Z,0
2017-10-14T02:38:45.868Z,0
2017-10-14T02:39:26.329Z,0
2017-10-14T02:40:06.805Z,0
2017-10-14T02:40:47.274Z,0
2017-10-14T02:41:27.732Z,0
2017-10-14T02:42:08.184Z,0
2017-10-14T02:42:48.674Z,0
2017-10-14T02:43:29.130Z,0
2017-10-14T02:44:09.619Z,0
2017-10-14T02:44:50.069Z,0
2017-10-14T02:47:18.438Z,0
2017-10-14T02:47:59.033Z,0
2017-10-14T02:48:39.482Z,0
2017-10-14T02:49:19.986Z,0
2017-10-14T02:50:00.394Z,0
2017-10-14T02:50:40.950Z,0
2017-10-14T02:51:21.381Z,0
2017-10-14T02:52:01.848Z,0
2017-10-14T02:52:42.297Z,0
2017-10-14T02:53:22.751Z,0
2017-10-14T02:54:03.181Z,0
2017-10-14T02:54:43.652Z,0
2017-10-14T02:55:24.040Z,0
2017-10-14T02:56:04.497Z,0
2017-10-14T02:56:44.971Z,0
2017-10-14T02:57:25.469Z,0
2017-10-14T02:58:06.063Z,0
2017-10-14T02:58:46.503Z,0
2017-10-14T02:59:26.957Z,0
2017-10-14T03:00:07.505Z,0
2017-10-14T03:00:47.904Z,0
2017-10-14T03:01:28.353Z,0
2017-10-14T03:02:08.853Z,0
2017-10-14T03:04:47.859Z,0
2017-10-14T03:05:28.441Z,0
2017-10-14T03:06:08.963Z,0
2017-10-14T03:06:49.464Z,0
2017-10-14T03:07:29.909Z,0
2017-10-14T03:08:10.375Z,0
2017-10-14T03:08:51.222Z,0
2017-10-14T03:11:29.384Z,0
2017-10-14T03:12:09.814Z,0
2017-10-14T03:12:50.295Z,0
2017-10-14T03:13:30.789Z,0
2017-10-14T03:14:11.204Z,0
2017-10-14T03:14:51.683Z,0
2017-10-14T03:15:32.145Z,0
2017-10-14T03:16:12.591Z,0
2017-10-14T03:16:53.060Z,0
2017-10-14T03:17:33.534Z,0
2017-10-14T03:18:14.034Z,0
2017-10-14T03:18:54.511Z,0
2017-10-14T03:19:34.887Z,0
2017-10-14T03:20:15.365Z,0
2017-10-14T03:20:55.795Z,0
2017-10-14T03:21:36.280Z,0
2017-10-14T03:22:16.771Z,0
2017-10-14T03:22:57.288Z,0
2017-10-14T03:23:37.715Z,0
2017-10-14T03:24:18.181Z,0
2017-10-14T03:24:58.562Z,0
2017-10-14T03:25:39.088Z,0
2017-10-14T03:26:19.487Z,0
2017-10-14T03:26:59.976Z,0
2017-10-14T03:27:40.389Z,0
2017-10-14T03:28:20.836Z,0
2017-10-14T03:29:01.304Z,0
2017-10-14T03:29:41.768Z,0
2017-10-14T03:30:22.227Z,0
2017-10-14T03:31:02.657Z,0
2017-10-14T03:31:43.202Z,0
2017-10-14T03:34:01.593Z,0
2017-10-14T03:34:42.128Z,0
2017-10-14T03:35:22.576Z,0
2017-10-14T03:36:03.058Z,0
2017-10-14T03:36:43.512Z,0
2017-10-14T03:37:23.919Z,0
2017-10-14T03:38:04.374Z,0
2017-10-14T03:38:44.833Z,0
2017-10-14T03:39:25.354Z,0
2017-10-14T03:40:05.790Z,0
2017-10-14T03:40:46.255Z,0
2017-10-14T03:41:26.683Z,0
2017-10-14T03:42:07.174Z,0
2017-10-14T03:42:47.570Z,0
2017-10-14T03:43:28.098Z,0
2017-10-14T03:44:08.605Z,0
2017-10-14T03:44:49.136Z,0
2017-10-14T03:45:29.583Z,0
2017-10-14T03:46:10.050Z,0
2017-10-14T03:46:50.538Z,0
2017-10-14T03:47:30.963Z,0
2017-10-14T03:48:11.459Z,0
2017-10-14T03:48:51.898Z,0
2017-10-14T03:49:32.372Z,0
2017-10-14T03:50:12.830Z,0
2017-10-14T03:50:53.278Z,0
2017-10-14T03:51:33.732Z,0
2017-10-14T03:52:14.327Z,0
2017-10-14T03:52:54.887Z,0
2017-10-14T03:53:35.330Z,0
2017-10-14T03:54:15.833Z,0
2017-10-14T03:54:56.277Z,0
2017-10-14T03:55:36.692Z,0
2017-10-14T03:56:17.153Z,0
2017-10-14T03:56:57.697Z,0
2017-10-14T03:57:38.158Z,0
2017-10-14T03:58:18.593Z,0
2017-10-14T03:58:59.033Z,0
2017-10-14T03:59:39.485Z,0
2017-10-14T04:00:19.972Z,0
2017-10-14T04:01:00.618Z,0
2017-10-14T04:01:41.012Z,0
2017-10-14T04:02:21.484Z,0
2017-10-14T04:03:01.939Z,0
2017-10-14T04:03:42.401Z,0
2017-10-14T04:04:22.952Z,0
2017-10-14T04:05:03.478Z,0
2017-10-14T04:05:43.978Z,0
2017-10-14T04:06:24.514Z,0
2017-10-14T04:07:04.956Z,0
2017-10-14T04:07:45.490Z,0
2017-10-14T04:08:25.932Z,0
2017-10-14T04:09:06.447Z,0
2017-10-14T04:09:46.897Z,0
2017-10-14T04:10:27.385Z,0
2017-10-14T04:11:07.831Z,0
2017-10-14T04:11:48.297Z,0
2017-10-14T04:12:28.787Z,0
2017-10-14T04:13:09.306Z,0
2017-10-14T04:13:49.750Z,0
2017-10-14T04:14:30.497Z,0
2017-10-14T04:15:10.867Z,0
2017-10-14T04:15:51.338Z,0
2017-10-14T04:16:31.810Z,0
2017-10-14T04:17:12.257Z,0
2017-10-14T04:17:52.712Z,0
2017-10-14T04:18:33.168Z,0
2017-10-14T04:19:13.630Z,0
2017-10-14T04:21:32.159Z,0
2017-10-14T04:22:12.598Z,0
2017-10-14T04:22:53.027Z,0
2017-10-14T04:23:33.513Z,0
2017-10-14T04:24:14.063Z,0
2017-10-14T04:24:54.711Z,0
2017-10-14T04:25:35.154Z,0
2017-10-14T04:26:15.590Z,0
2017-10-14T04:26:56.109Z,0
2017-10-14T04:27:36.641Z,0
2017-10-14T04:28:17.126Z,0
2017-10-14T04:28:57.602Z,0
2017-10-14T04:29:38.074Z,0
2017-10-14T04:30:18.518Z,0
2017-10-14T04:30:58.958Z,0
2017-10-14T04:31:39.419Z,0
2017-10-14T04:32:19.931Z,0
2017-10-14T04:33:00.484Z,0
2017-10-14T04:33:40.877Z,0
2017-10-14T04:34:21.338Z,0
2017-10-14T04:35:01.820Z,0
2017-10-14T04:35:42.318Z,0
2017-10-14T04:36:22.730Z,0
2017-10-14T04:37:03.183Z,0
2017-10-14T04:37:43.730Z,0
2017-10-14T04:38:24.228Z,0
2017-10-14T04:39:05.449Z,0
2017-10-14T04:39:45.892Z,0
2017-10-14T04:40:26.300Z,0
2017-10-14T04:41:06.802Z,0
2017-10-14T04:41:47.257Z,0
2017-10-14T04:42:27.727Z,0
2017-10-14T04:43:08.135Z,0
2017-10-14T04:43:48.608Z,0
2017-10-14T04:44:29.042Z,0
2017-10-14T04:45:09.498Z,0
2017-10-14T04:45:49.953Z,0
2017-10-14T04:46:30.484Z,0
2017-10-14T04:47:10.875Z,0
2017-10-14T04:47:51.330Z,0
2017-10-14T04:48:31.856Z,0
2017-10-14T04:49:12.274Z,0
2017-10-14T04:49:52.701Z,0
2017-10-14T04:50:33.417Z,0
2017-10-14T04:51:13.849Z,0
2017-10-14T04:51:54.358Z,0
2017-10-14T04:52:34.811Z,0
2017-10-14T04:53:15.209Z,0
2017-10-14T04:53:55.701Z,0
2017-10-14T04:54:36.104Z,0
2017-10-14T04:55:16.636Z,0
2017-10-14T04:55:57.124Z,0
2017-10-14T04:56:37.595Z,0
2017-10-14T04:57:18.062Z,0
2017-10-14T04:57:58.533Z,0
2017-10-14T04:58:39.062Z,0
2017-10-14T04:59:19.529Z,0
2017-10-14T05:00:00.052Z,0
2017-10-14T05:00:40.608Z,0
2017-10-14T05:01:21.065Z,0
2017-10-14T05:02:01.552Z,0
2017-10-14T05:02:41.969Z,0
2017-10-14T05:03:22.377Z,0
2017-10-14T05:04:02.850Z,0
2017-10-14T05:04:43.326Z,0
2017-10-14T05:05:23.833Z,0
2017-10-14T05:07:42.198Z,0
2017-10-14T05:08:22.700Z,0
2017-10-14T05:09:03.245Z,0
2017-10-14T05:09:43.746Z,0
2017-10-14T05:10:24.175Z,0
2017-10-14T05:11:04.634Z,0
2017-10-14T05:11:45.086Z,0
2017-10-14T05:12:25.587Z,0
2017-10-14T05:13:06.078Z,0
2017-10-14T05:13:46.522Z,0
2017-10-14T05:14:26.986Z,0
2017-10-14T05:15:07.478Z,0
2017-10-14T05:15:48.037Z,0
2017-10-14T05:16:28.475Z,0
2017-10-14T05:17:09.050Z,0
2017-10-14T05:17:49.507Z,0
2017-10-14T05:18:29.969Z,0
2017-10-14T05:19:10.495Z,0
2017-10-14T05:19:50.902Z,0
2017-10-14T05:20:31.494Z,0
2017-10-14T05:21:11.992Z,0
2017-10-14T05:23:40.130Z,0
2017-10-14T05:24:20.591Z,0
2017-10-14T05:25:01.027Z,0
2017-10-14T05:25:41.490Z,0
2017-10-14T05:26:22.012Z,0
2017-10-14T05:27:02.495Z,0
2017-10-14T05:27:42.939Z,0
2017-10-14T05:28:23.336Z,0
2017-10-14T05:29:03.783Z,0
2017-10-14T05:29:44.313Z,0
2017-10-14T05:32:13.049Z,0
2017-10-14T05:32:53.532Z,0
2017-10-14T05:33:33.940Z,0
2017-10-14T05:34:14.347Z,0
2017-10-14T05:34:54.867Z,0
2017-10-14T05:35:35.337Z,0
2017-10-14T05:36:15.875Z,0
2017-10-14T05:36:56.474Z,0
2017-10-14T05:37:37.051Z,0
2017-10-14T05:38:17.672Z,0
2017-10-14T05:38:58.313Z,0
2017-10-14T05:39:38.914Z,0
2017-10-14T05:40:19.533Z,0
2017-10-14T05:41:00.229Z,0
2017-10-14T05:41:40.817Z,5
2017-10-14T05:42:21.458Z,5
2017-10-14T05:43:02.081Z,5
2017-10-14T05:43:42.711Z,5
2017-10-14T05:44:23.320Z,5
2017-10-14T05:45:03.920Z,5
2017-10-14T05:45:44.485Z,5
2017-10-14T05:46:25.192Z,5
2017-10-14T05:47:05.777Z,5
2017-10-14T05:47:46.369Z,5
2017-10-14T05:48:27.020Z,5
2017-10-14T05:49:07.534Z,10
2017-10-14T05:49:47.984Z,10
2017-10-14T05:50:28.476Z,10
2017-10-14T05:51:08.877Z,10
2017-10-14T05:51:49.373Z,10
2017-10-14T05:52:29.786Z,10
2017-10-14T05:53:10.355Z,10
2017-10-14T05:53:50.872Z,10
2017-10-14T05:54:31.525Z,10
2017-10-14T05:55:12.010Z,15
2017-10-14T05:55:52.481Z,15
2017-10-14T05:56:33.044Z,15
2017-10-14T05:57:13.498Z,15
2017-10-14T05:57:53.990Z,15
2017-10-14T05:58:34.417Z,15
2017-10-14T05:59:14.887Z,15
2017-10-14T05:59:55.342Z,15
2017-10-14T06:00:35.803Z,20
2017-10-14T06:01:16.435Z,20
2017-10-14T06:01:56.921Z,20
2017-10-14T06:02:37.398Z,20
2017-10-14T06:03:17.841Z,20
2017-10-14T06:03:58.389Z,20
2017-10-14T06:04:38.849Z,20
2017-10-14T06:05:19.356Z,25
2017-10-14T06:05:59.812Z,25
2017-10-14T06:06:40.316Z,25
2017-10-14T06:07:20.782Z,25
2017-10-14T06:08:01.286Z,25
2017-10-14T06:08:41.805Z,25
2017-10-14T06:09:22.306Z,25
2017-10-14T06:10:02.759Z,25
2017-10-14T06:10:43.258Z,30
2017-10-14T06:11:23.718Z,30
2017-10-14T06:12:04.200Z,30
2017-10-14T06:12:44.743Z,30
2017-10-14T06:13:25.181Z,30
2017-10-14T06:14:05.637Z,30
2017-10-14T06:14:46.099Z,35
2017-10-14T06:15:26.674Z,35
2017-10-14T06:16:07.112Z,35
2017-10-14T06:16:47.680Z,35
2017-10-14T06:17:28.173Z,35
2017-10-14T06:18:08.638Z,35
2017-10-14T06:18:49.185Z,35
2017-10-14T06:19:29.630Z,40
2017-10-14T06:20:10.169Z,40
2017-10-14T06:20:50.586Z,40
2017-10-14T06:21:31.036Z,40
2017-10-14T06:22:11.529Z,40
2017-10-14T06:22:52.007Z,40
2017-10-14T06:23:32.462Z,40
2017-10-14T06:24:12.886Z,40
2017-10-14T06:24:53.358Z,45
2017-10-14T06:25:33.844Z,45
2017-10-14T06:26:14.334Z,45
2017-10-14T06:26:54.764Z,45
2017-10-14T06:27:35.225Z,45
2017-10-14T06:28:15.969Z,45
2017-10-14T06:28:56.439Z,45
2017-10-14T06:29:36.916Z,50
2017-10-14T06:30:17.536Z,50
2017-10-14T06:30:58.001Z,50
2017-10-14T06:31:38.609Z,50
2017-10-14T06:32:19.055Z,50
2017-10-14T06:32:59.562Z,50
2017-10-14T06:33:40.286Z,50
2017-10-14T06:34:20.552Z,50
2017-10-14T06:35:01.100Z,50
2017-10-14T06:35:41.598Z,55
2017-10-14T06:36:22.037Z,55
2017-10-14T06:37:02.527Z,55
2017-10-14T06:37:43.023Z,55
2017-10-14T06:38:23.508Z,55
2017-10-14T06:39:03.968Z,55
2017-10-14T06:39:44.438Z,55
2017-10-14T06:40:24.938Z,55
2017-10-14T06:41:05.355Z,55
2017-10-14T06:41:45.810Z,55
2017-10-14T06:42:26.294Z,60
2017-10-14T06:43:06.745Z,60
2017-10-14T06:43:47.213Z,60
2017-10-14T06:44:27.655Z,60
2017-10-14T06:45:08.149Z,60
2017-10-14T06:45:48.612Z,60
2017-10-14T06:46:29.182Z,60
2017-10-14T06:47:09.808Z,60
2017-10-14T06:47:50.215Z,65
2017-10-14T06:48:30.718Z,65
2017-10-14T06:49:11.192Z,65
2017-10-14T06:49:51.647Z,65
2017-10-14T06:50:32.132Z,65
2017-10-14T06:51:12.571Z,65
2017-10-14T06:51:53.118Z,65
2017-10-14T06:52:33.527Z,70
2017-10-14T06:53:14.020Z,70
2017-10-14T06:53:54.563Z,70
2017-10-14T06:54:35.071Z,70
2017-10-14T06:55:15.543Z,70
2017-10-14T06:55:56.102Z,70
2017-10-14T06:56:36.542Z,70
2017-10-14T06:57:16.949Z,75
2017-10-14T06:57:57.406Z,75
2017-10-14T06:58:37.862Z,75
2017-10-14T06:59:18.359Z,75
2017-10-14T06:59:58.827Z,75
2017-10-14T07:00:39.228Z,75
2017-10-14T07:01:19.692Z,80
2017-10-14T07:02:00.194Z,80
2017-10-14T07:02:40.685Z,80
2017-10-14T07:03:21.117Z,80
2017-10-14T07:04:01.503Z,80
2017-10-14T07:04:41.989Z,80
2017-10-14T07:05:22.439Z,80
2017-10-14T07:06:02.970Z,85
2017-10-14T07:06:43.522Z,85
2017-10-14T07:07:24.191Z,85
2017-10-14T07:08:04.603Z,85
2017-10-14T07:08:45.088Z,85
2017-10-14T07:09:25.568Z,85
2017-10-14T07:10:06.040Z,85
2017-10-14T07:10:46.551Z,90
2017-10-14T07:11:27.147Z,90
2017-10-14T07:12:07.588Z,90
2017-10-14T07:12:48.076Z,90
2017-10-14T07:13:28.549Z,90
2017-10-14T07:14:09.061Z,90
2017-10-14T07:14:49.533Z,90
2017-10-14T07:15:30.028Z,90
2017-10-14T07:16:10.557Z,90
2017-10-14T07:16:50.995Z,90
2017-10-14T07:17:31.401Z,95
2017-10-14T07:18:11.862Z,95
2017-10-14T07:18:52.418Z,95
2017-10-14T07:19:32.877Z,95
2017-10-14T07:20:13.413Z,95
2017-10-14T07:20:53.876Z,95
2017-10-14T07:21:34.336Z,95
2017-10-14T07:22:14.812Z,95
2017-10-14T07:22:55.279Z,95
2017-10-14T07:23:35.784Z,100
2017-10-14T07:24:16.238Z,100
2017-10-14T07:24:56.635Z,100
2017-10-14T07:25:37.263Z,100
2017-10-14T07:26:17.742Z,100
2017-10-14T07:26:58.224Z,100
2017-10-14T07:29:37.881Z,100
2017-10-14T07:30:18.381Z,100
2017-10-14T07:30:58.929Z,105
2017-10-14T07:31:39.475Z,105
2017-10-14T07:32:19.919Z,105
2017-10-14T07:33:00.460Z,105
2017-10-14T07:33:40.865Z,105
2017-10-14T07:34:21.421Z,105
2017-10-14T07:35:01.887Z,105
2017-10-14T07:35:42.451Z,105
2017-10-14T07:36:22.897Z,105
2017-10-14T07:37:03.452Z,110
2017-10-14T07:39:42.063Z,110
2017-10-14T07:40:22.547Z,110
2017-10-14T07:41:02.948Z,110
2017-10-14T07:41:43.497Z,110
2017-10-14T07:42:23.988Z,110
2017-10-14T07:43:04.671Z,115
2017-10-14T07:43:45.087Z,115
2017-10-14T07:44:25.674Z,115
2017-10-14T07:45:06.173Z,115
2017-10-14T07:45:46.635Z,115
2017-10-14T07:46:27.084Z,115
2017-10-14T07:47:07.622Z,115
2017-10-14T07:47:48.038Z,115
2017-10-14T07:48:28.604Z,115
2017-10-14T07:49:09.013Z,115
2017-10-14T07:49:49.558Z,115
2017-10-14T07:50:29.967Z,115
2017-10-14T07:51:10.516Z,115
2017-10-14T07:51:50.976Z,115
2017-10-14T07:52:31.428Z,115
2017-10-14T07:53:12.076Z,115
2017-10-14T07:53:52.513Z,115
2017-10-14T07:54:33.009Z,115
2017-10-14T07:55:13.666Z,120
2017-10-14T07:55:54.208Z,120
2017-10-14T07:56:34.671Z,120
2017-10-14T07:57:15.171Z,120
2017-10-14T07:57:55.612Z,120
2017-10-14T07:58:36.064Z,120
2017-10-14T07:59:16.528Z,120
2017-10-14T07:59:57.284Z,120
2017-10-14T08:00:37.750Z,120
2017-10-14T08:01:18.263Z,120
2017-10-14T08:01:58.682Z,120
2017-10-14T08:02:39.178Z,120
2017-10-14T08:03:19.688Z,120
2017-10-14T08:04:00.140Z,120
2017-10-14T08:04:40.605Z,120
2017-10-14T08:05:21.068Z,120
2017-10-14T08:06:01.530Z,120
2017-10-14T08:06:41.987Z,120
2017-10-14T08:07:22.597Z,125
2017-10-14T08:08:03.079Z,125
2017-10-14T08:08:43.756Z,125
2017-10-14T08:09:24.203Z,125
2017-10-14T08:10:04.689Z,125
2017-10-14T08:10:45.179Z,125
2017-10-14T08:11:25.676Z,125
2017-10-14T08:12:06.110Z,125
2017-10-14T08:12:46.607Z,125
2017-10-14T08:13:27.080Z,125
2017-10-14T08:14:07.527Z,125
2017-10-14T08:14:48.070Z,130
2017-10-14T08:15:28.562Z,130
2017-10-14T08:16:09.052Z,130
2017-10-14T08:16:49.520Z,130
2017-10-14T08:17:30.015Z,130
2017-10-14T08:18:10.532Z,130
2017-10-14T08:18:50.976Z,130
2017-10-14T08:19:31.500Z,130
2017-10-14T08:20:11.980Z,130
2017-10-14T08:20:52.470Z,130
2017-10-14T08:21:32.934Z,130
2017-10-14T08:22:13.442Z,130
2017-10-14T08:22:53.950Z,130
2017-10-14T08:23:34.396Z,130
2017-10-14T08:24:14.854Z,130
2017-10-14T08:24:55.462Z,135
2017-10-14T08:25:35.995Z,135
2017-10-14T08:26:16.497Z,135
2017-10-14T08:26:56.994Z,135
2017-10-14T08:27:37.521Z,135
2017-10-14T08:28:18.051Z,135
2017-10-14T08:28:58.595Z,140
2017-10-14T08:29:39.126Z,150
2017-10-14T08:30:19.655Z,155
2017-10-14T08:31:00.097Z,155
2017-10-14T08:31:40.617Z,160
2017-10-14T08:32:21.181Z,165
2017-10-14T08:33:01.645Z,170
2017-10-14T08:33:42.058Z,175
2017-10-14T08:34:22.506Z,180
2017-10-14T08:35:02.967Z,190
2017-10-14T08:35:43.433Z,195
2017-10-14T08:36:23.941Z,200
2017-10-14T08:37:04.348Z,210
2017-10-14T08:37:45.092Z,225
2017-10-14T08:38:25.572Z,235
2017-10-14T08:39:06.080Z,240
2017-10-14T08:39:46.545Z,250
2017-10-14T08:40:27.015Z,265
2017-10-14T08:41:07.483Z,265
2017-10-14T08:41:47.971Z,270
2017-10-14T08:42:28.404Z,275
2017-10-14T08:43:08.926Z,280
2017-10-14T08:43:49.387Z,285
2017-10-14T08:44:29.797Z,285
2017-10-14T08:45:10.359Z,280
2017-10-14T08:45:50.822Z,280
2017-10-14T08:46:31.259Z,280
2017-10-14T08:47:11.725Z,280
2017-10-14T08:47:52.246Z,280
2017-10-14T08:48:32.739Z,280
2017-10-14T08:49:13.244Z,275
2017-10-14T08:49:53.863Z,275
2017-10-14T08:50:34.326Z,275
2017-10-14T08:51:14.796Z,270
2017-10-14T08:51:55.280Z,270
2017-10-14T08:52:35.894Z,270
2017-10-14T08:53:16.365Z,260
2017-10-14T08:53:56.832Z,260
2017-10-14T08:54:37.352Z,255
2017-10-14T08:55:17.816Z,255
2017-10-14T08:55:58.303Z,250
2017-10-14T08:56:38.789Z,250
2017-10-14T08:57:19.218Z,250
2017-10-14T08:57:59.724Z,250
2017-10-14T08:58:40.141Z,250
2017-10-14T08:59:20.747Z,250
2017-10-14T09:00:01.222Z,255
2017-10-14T09:00:41.710Z,255
2017-10-14T09:01:22.323Z,255
2017-10-14T09:02:02.807Z,265
2017-10-14T09:02:43.318Z,270
2017-10-14T09:03:23.742Z,285
2017-10-14T09:04:04.255Z,300
2017-10-14T09:04:44.701Z,315
2017-10-14T09:05:25.131Z,305
2017-10-14T09:06:05.626Z,300
2017-10-14T09:06:46.121Z,295
2017-10-14T09:07:26.612Z,295
2017-10-14T09:08:07.122Z,300
2017-10-14T09:08:47.522Z,310
2017-10-14T09:09:28.043Z,330
2017-10-14T09:11:46.136Z,320
2017-10-14T09:12:26.631Z,220
2017-10-14T09:13:07.072Z,210
2017-10-14T09:13:47.588Z,205
2017-10-14T09:14:28.077Z,205
2017-10-14T09:15:08.609Z,200
2017-10-14T09:19:29.784Z,200
2017-10-14T09:20:10.330Z,200
2017-10-14T09:20:50.735Z,200
2017-10-14T09:21:31.493Z,200
2017-10-14T09:22:11.870Z,200
2017-10-14T09:22:52.312Z,200
2017-10-14T09:23:32.832Z,195
2017-10-14T09:24:13.283Z,195
2017-10-14T09:24:53.763Z,195
2017-10-14T09:25:34.134Z,195
2017-10-14T09:26:14.624Z,195
2017-10-14T09:26:55.159Z,195
2017-10-14T09:27:35.622Z,200
2017-10-14T09:28:16.090Z,200
2017-10-14T09:28:56.639Z,200
2017-10-14T09:29:37.146Z,200
2017-10-14T09:30:17.617Z,205
2017-10-14T09:30:58.031Z,205
2017-10-14T09:31:38.546Z,205
2017-10-14T09:32:19.141Z,205
2017-10-14T09:32:59.587Z,205
2017-10-14T09:33:40.044Z,205
2017-10-14T09:34:20.488Z,205
2017-10-14T09:35:00.964Z,205
2017-10-14T09:37:34.717Z,205
2017-10-14T09:38:15.277Z,205
2017-10-14T09:38:56.213Z,205
2017-10-14T09:39:37.328Z,205
2017-10-14T09:40:18.143Z,205
2017-10-14T09:40:58.538Z,205
2017-10-14T09:41:39.070Z,205
2017-10-14T09:44:12.121Z,215
2017-10-14T09:44:52.560Z,215
2017-10-14T09:47:11.032Z,225
2017-10-14T09:47:51.548Z,225
2017-10-14T09:48:32.105Z,230
2017-10-14T09:49:12.587Z,235
2017-10-14T09:49:53.049Z,245
2017-10-14T09:50:33.552Z,250
2017-10-14T09:51:14.063Z,260
2017-10-14T09:51:54.486Z,270
2017-10-14T09:52:35.024Z,280
2017-10-14T09:53:15.508Z,295
2017-10-14T09:53:55.964Z,305
2017-10-14T09:54:36.402Z,320
2017-10-14T09:55:16.832Z,340
2017-10-14T09:55:57.438Z,360
2017-10-14T09:56:37.945Z,400
2017-10-14T09:57:18.396Z,415
2017-10-14T09:57:58.870Z,445
2017-10-14T09:58:39.331Z,455
2017-10-14T09:59:19.831Z,455
2017-10-14T10:00:00.330Z,485
2017-10-14T10:00:40.755Z,565
2017-10-14T10:01:21.264Z,620
2017-10-14T10:02:01.762Z,700
2017-10-14T10:02:42.267Z,765
2017-10-14T10:03:22.690Z,825
2017-10-14T10:04:03.212Z,850
2017-10-14T10:04:43.663Z,865
2017-10-14T10:05:24.220Z,885
2017-10-14T10:06:04.713Z,895
2017-10-14T10:06:45.262Z,935
2017-10-14T10:07:25.781Z,970
2017-10-14T10:08:06.199Z,1010
2017-10-14T10:08:46.721Z,1050
2017-10-14T10:09:27.187Z,1070
2017-10-14T10:11:40.343Z,1215
2017-10-14T10:13:58.718Z,1420
2017-10-14T10:14:39.203Z,1460
2017-10-14T10:15:19.717Z,1450
2017-10-14T10:16:00.201Z,1450
2017-10-14T10:16:40.691Z,1465
2017-10-14T10:17:21.232Z,1520
2017-10-14T10:18:01.665Z,1600
2017-10-14T10:18:42.203Z,1680
2017-10-14T10:19:22.660Z,1740
2017-10-14T10:20:03.126Z,1790
2017-10-14T10:20:43.996Z,1850